Time;durP1;ratioP1;P1;durP2;ratioP2;P2;SDS_P1;SDS_P2;PMS_P1;PMS_P2;Temp;Humidity;BMP_temperature;BMP_pressure;BME280_temperature;BME280_humidity;BME280_pressure;Samples;Min_cycle;Max_cycle;Signal;HPM_P1;HPM_P2
2021/05/17 00:02:08;;;;;;;1.38;0.43;;;13.30;68.80;;;;;;4944659;29;20052;-66
2021/05/17 00:04:35;;;;;;;0.57;0.40;;;13.30;68.70;;;;;;4944760;29;20078;-66
2021/05/17 00:07:03;;;;;;;0.80;0.40;;;13.30;68.70;;;;;;4944638;29;20351;-67
2021/05/17 00:09:28;;;;;;;1.95;0.30;;;13.30;68.50;;;;;;4944701;29;20032;-67
2021/05/17 00:11:57;;;;;;;1.17;0.40;;;13.30;68.40;;;;;;4946624;29;20035;-67
2021/05/17 00:14:23;;;;;;;0.30;0.30;;;13.20;68.40;;;;;;4945134;29;20238;-67
2021/05/17 00:16:49;;;;;;;0.43;0.40;;;13.20;68.40;;;;;;4944561;29;20357;-67
2021/05/17 00:19:14;;;;;;;0.55;0.30;;;13.10;68.50;;;;;;4944581;29;20032;-67
2021/05/17 00:21:40;;;;;;;0.30;0.30;;;13.10;68.50;;;;;;4947974;29;20377;-67
2021/05/17 00:24:07;;;;;;;0.30;0.20;;;13.10;68.70;;;;;;4950284;29;20027;-67
2021/05/17 00:26:32;;;;;;;4.13;0.40;;;13.10;68.80;;;;;;4948642;29;20044;-66
2021/05/17 00:28:58;;;;;;;0.47;0.30;;;13.10;68.90;;;;;;4948494;29;20107;-66
2021/05/17 00:31:24;;;;;;;0.73;0.30;;;13.00;69.20;;;;;;4948359;29;20275;-67
2021/05/17 00:33:49;;;;;;;0.40;0.30;;;13.00;69.10;;;;;;4948289;29;20035;-67
2021/05/17 00:36:16;;;;;;;0.68;0.40;;;13.00;69.00;;;;;;4949652;29;20390;-67
2021/05/17 00:38:42;;;;;;;0.75;0.30;;;13.10;68.90;;;;;;4948560;29;20032;-66
2021/05/17 00:41:07;;;;;;;0.52;0.30;;;13.00;68.80;;;;;;4948448;29;20044;-66
2021/05/17 00:43:37;;;;;;;4.80;0.47;;;13.00;68.80;;;;;;4948269;29;20040;-67
2021/05/17 00:46:04;;;;;;;0.70;0.30;;;13.00;68.90;;;;;;4948178;29;20059;-66
2021/05/17 00:48:30;;;;;;;2.67;0.50;;;13.00;69.50;;;;;;4947887;29;20039;-67
2021/05/17 00:50:56;;;;;;;0.68;0.38;;;12.90;69.30;;;;;;4949753;29;20091;-67
2021/05/17 00:53:21;;;;;;;0.63;0.38;;;12.90;69.20;;;;;;4931396;29;20047;-67
2021/05/17 00:55:47;;;;;;;0.63;0.30;;;12.90;69.10;;;;;;4947979;29;20330;-67
2021/05/17 00:58:13;;;;;;;0.40;0.35;;;12.90;69.10;;;;;;4947819;29;20107;-67
2021/05/17 01:00:39;;;;;;;0.35;0.30;;;12.90;69.30;;;;;;4947707;29;20032;-67
2021/05/17 01:03:05;;;;;;;0.65;0.40;;;12.90;69.50;;;;;;4949082;29;20082;-67
2021/05/17 01:05:30;;;;;;;1.17;0.30;;;12.90;69.40;;;;;;4948125;29;20087;-67
2021/05/17 01:07:56;;;;;;;1.27;0.50;;;12.80;69.40;;;;;;4947860;29;20067;-67
2021/05/17 01:10:22;;;;;;;0.50;0.40;;;12.90;69.20;;;;;;4931053;29;20043;-67
2021/05/17 01:12:49;;;;;;;0.90;0.38;;;12.90;69.00;;;;;;4947429;29;20039;-67
2021/05/17 01:15:16;;;;;;;0.55;0.38;;;12.90;69.10;;;;;;4949061;29;20090;-66
2021/05/17 01:17:42;;;;;;;0.57;0.40;;;12.80;69.20;;;;;;4947776;29;20084;-66
2021/05/17 01:20:12;;;;;;;0.55;0.35;;;12.80;69.30;;;;;;4947487;29;20264;-66
2021/05/17 01:25:40;;;;;;;0.80;0.43;;;12.70;69.50;;;;;;4904901;29;20036;-66
2021/05/17 01:28:06;;;;;;;1.48;0.40;;;12.60;69.30;;;;;;4947361;29;20042;-66
2021/05/17 01:30:32;;;;;;;1.25;0.40;;;12.60;69.10;;;;;;4930265;29;20028;-66
2021/05/17 01:32:57;;;;;;;1.98;0.50;;;12.70;69.20;;;;;;4931628;29;20207;-67
2021/05/17 01:35:23;;;;;;;1.20;0.45;;;12.70;69.20;;;;;;4947456;29;20223;-66
2021/05/17 01:37:49;;;;;;;1.15;0.40;;;12.70;69.50;;;;;;4947093;29;20103;-67
2021/05/17 01:40:19;;;;;;;0.80;0.40;;;12.60;69.40;;;;;;4947036;29;20091;-67
2021/05/17 01:42:44;;;;;;;1.10;0.45;;;12.70;69.40;;;;;;4947014;29;20031;-66
2021/05/17 01:45:10;;;;;;;2.20;0.60;;;12.60;69.30;;;;;;4948769;29;20049;-67
2021/05/17 01:47:40;;;;;;;2.17;0.47;;;12.60;69.50;;;;;;4930414;29;20031;-67
2021/05/17 01:50:08;;;;;;;1.17;0.60;;;12.60;69.30;;;;;;4946904;29;20369;-67
2021/05/17 01:52:35;;;;;;;1.95;0.50;;;12.50;69.40;;;;;;4946815;29;20038;-67
2021/05/17 01:55:00;;;;;;;0.88;0.57;;;12.60;69.30;;;;;;4946649;29;20051;-66
2021/05/17 01:57:26;;;;;;;1.00;0.40;;;12.60;69.40;;;;;;4929959;29;20043;-67
2021/05/17 01:59:51;;;;;;;0.80;0.50;;;12.50;69.50;;;;;;4948244;29;20023;-66
2021/05/17 02:02:17;;;;;;;2.25;0.65;;;12.40;69.70;;;;;;4920650;29;20123;-66
2021/05/17 02:04:42;;;;;;;3.08;0.57;;;12.50;69.80;;;;;;4908891;29;20152;-67
2021/05/17 02:07:08;;;;;;;2.53;0.57;;;12.50;70.00;;;;;;4908632;29;20041;-67
2021/05/17 02:09:36;;;;;;;1.30;0.50;;;12.40;70.10;;;;;;4908487;29;20326;-67
2021/05/17 02:12:03;;;;;;;0.95;0.50;;;12.50;69.80;;;;;;4909607;29;20116;-67
2021/05/17 02:14:28;;;;;;;2.85;0.80;;;12.50;69.80;;;;;;4908802;29;20336;-67
2021/05/17 02:16:54;;;;;;;1.48;0.68;;;12.50;69.90;;;;;;4891714;29;20043;-67
2021/05/17 02:19:23;;;;;;;1.20;0.60;;;12.50;69.80;;;;;;4908741;29;20040;-66
2021/05/17 02:21:49;;;;;;;1.52;0.70;;;12.50;70.00;;;;;;4908546;29;20033;-66
2021/05/17 02:24:15;;;;;;;1.92;0.70;;;12.50;70.10;;;;;;4910174;29;20029;-66
2021/05/17 02:26:40;;;;;;;2.78;0.60;;;12.50;70.00;;;;;;4908789;29;20045;-66
2021/05/17 02:29:06;;;;;;;1.48;0.60;;;12.60;70.20;;;;;;4908557;29;20051;-67
2021/05/17 02:31:32;;;;;;;3.60;0.60;;;12.60;69.90;;;;;;4907468;29;20324;-67
2021/05/17 02:33:58;;;;;;;2.17;0.60;;;12.60;69.90;;;;;;4908368;29;20047;-66
2021/05/17 02:36:24;;;;;;;1.02;0.50;;;12.60;69.80;;;;;;4908614;29;20037;-66
2021/05/17 02:38:51;;;;;;;2.85;0.60;;;12.50;69.90;;;;;;4909836;29;20032;-67
2021/05/17 02:41:16;;;;;;;1.00;0.50;;;12.50;69.80;;;;;;4908420;29;20040;-66
2021/05/17 02:43:42;;;;;;;2.95;0.68;;;12.60;69.70;;;;;;4891334;29;20080;-66
2021/05/17 02:46:08;;;;;;;1.63;0.65;;;12.60;69.60;;;;;;4908075;29;20303;-66
2021/05/17 02:48:33;;;;;;;2.20;0.57;;;12.50;69.50;;;;;;4907809;29;20096;-66
2021/05/17 02:50:59;;;;;;;1.23;0.40;;;12.60;69.60;;;;;;4909675;29;20043;-66
2021/05/17 02:53:29;;;;;;;1.58;0.47;;;12.60;69.40;;;;;;4908302;29;20048;-66
2021/05/17 02:55:56;;;;;;;0.85;0.40;;;12.60;69.10;;;;;;4908170;29;20374;-66
2021/05/17 02:58:22;;;;;;;1.33;0.45;;;12.60;69.00;;;;;;4907848;29;20052;-67
2021/05/17 03:00:51;;;;;;;1.77;0.50;;;12.60;68.80;;;;;;4907900;29;20044;-66
2021/05/17 03:03:16;;;;;;;1.33;0.50;;;12.60;69.10;;;;;;4936656;29;20059;-66
2021/05/17 03:05:43;;;;;;;0.75;0.40;;;12.60;69.10;;;;;;4945424;29;20090;-66
2021/05/17 03:08:13;;;;;;;2.00;0.40;;;12.60;68.60;;;;;;4945770;29;20039;-66
2021/05/17 03:10:44;;;;;;;0.82;0.50;;;12.60;68.40;;;;;;4945830;29;20327;-67
2021/05/17 03:13:11;;;;;;;;;;;12.70;68.50;;;;;;4928984;29;20041;-67
2021/05/17 03:15:37;;;;;;;1.08;0.45;;;12.60;68.20;;;;;;4945512;29;20178;-66
2021/05/17 03:18:03;;;;;;;1.42;0.40;;;12.60;68.30;;;;;;4947094;29;20346;-66
2021/05/17 03:20:29;;;;;;;0.82;0.38;;;12.60;68.40;;;;;;4945697;29;20099;-66
2021/05/17 03:22:56;;;;;;;2.70;0.50;;;12.60;68.20;;;;;;4945302;29;20219;-66
2021/05/17 03:25:32;;;;;;;1.52;0.40;;;12.60;68.00;;;;;;4945333;29;20198;-66
2021/05/17 03:27:58;;;;;;;1.95;0.40;;;12.60;67.90;;;;;;4945326;29;20052;-67
2021/05/17 03:30:23;;;;;;;0.93;0.40;;;12.60;67.90;;;;;;4945606;29;20091;-67
2021/05/17 03:32:49;;;;;;;0.82;0.30;;;12.60;68.10;;;;;;4946729;29;20196;-67
2021/05/17 03:35:15;;;;;;;0.77;0.40;;;12.50;67.90;;;;;;4945137;29;20250;-67
2021/05/17 03:37:41;;;;;;;3.25;0.50;;;12.60;67.80;;;;;;4945100;29;20051;-64
2021/05/17 03:40:07;;;;;;;0.90;0.40;;;12.60;67.40;;;;;;4945143;29;20050;-66
2021/05/17 03:42:33;;;;;;;0.30;0.30;;;12.60;67.50;;;;;;4944940;29;20034;-66
2021/05/17 03:44:58;;;;;;;1.13;0.40;;;12.60;67.60;;;;;;4947146;29;20055;-65
2021/05/17 03:47:24;;;;;;;3.80;0.45;;;12.50;67.80;;;;;;4945401;29;20039;-66
2021/05/17 03:49:49;;;;;;;3.25;0.40;;;12.50;67.50;;;;;;4945197;29;20046;-66
2021/05/17 03:52:15;;;;;;;1.75;0.40;;;12.60;67.50;;;;;;4945029;29;20276;-66
2021/05/17 03:54:40;;;;;;;1.10;0.30;;;12.60;67.50;;;;;;4944787;29;20066;-66
2021/05/17 03:57:06;;;;;;;1.40;0.50;;;12.60;67.50;;;;;;4950649;29;20038;-65
2021/05/17 03:59:32;;;;;;;2.40;0.50;;;12.60;67.50;;;;;;4949053;29;20059;-65
2021/05/17 04:01:58;;;;;;;0.63;0.38;;;12.60;67.40;;;;;;4948719;29;20107;-65
2021/05/17 04:04:25;;;;;;;2.35;0.57;;;12.60;67.40;;;;;;4949067;29;20048;-65
2021/05/17 04:06:59;;;;;;;1.27;0.40;;;12.60;67.40;;;;;;4948752;29;20095;-65
2021/05/17 04:14:53;;;;;;;1.33;0.40;;;12.60;67.30;;;;;;4949210;29;20042;-65
2021/05/17 04:17:18;;;;;;;1.33;0.40;;;12.60;67.10;;;;;;4948816;29;20036;-65
2021/05/17 04:19:44;;;;;;;3.97;1.48;;;12.60;67.10;;;;;;4948475;29;20231;-66
2021/05/17 04:22:09;;;;;;;1.30;0.50;;;12.60;67.30;;;;;;4948426;29;20047;-65
2021/05/17 04:24:35;;;;;;;0.60;0.40;;;12.60;67.20;;;;;;4948263;29;20034;-66
2021/05/17 04:27:01;;;;;;;4.78;0.40;;;12.60;67.20;;;;;;4949709;29;20040;-65
2021/05/17 04:29:26;;;;;;;1.70;0.98;;;12.60;67.60;;;;;;4948490;29;20092;-66
2021/05/17 04:31:52;;;;;;;2.97;0.77;;;12.60;67.60;;;;;;4947898;29;20050;-66
2021/05/17 04:34:18;;;;;;;4.32;0.80;;;12.50;67.30;;;;;;4948047;29;20231;-66
2021/05/17 04:36:44;;;;;;;1.20;0.50;;;12.50;67.20;;;;;;4948022;29;20091;-66
2021/05/17 04:39:09;;;;;;;4.05;0.60;;;12.40;66.70;;;;;;4949610;29;20036;-66
2021/05/17 04:41:35;;;;;;;2.28;0.50;;;12.40;67.20;;;;;;4948361;29;20043;-66
2021/05/17 04:44:01;;;;;;;3.00;0.60;;;12.30;67.00;;;;;;4947960;29;20330;-65
2021/05/17 04:46:26;;;;;;;3.65;0.75;;;12.40;67.10;;;;;;4947874;29;20235;-66
2021/05/17 04:48:52;;;;;;;3.40;0.55;;;12.40;66.80;;;;;;4947885;29;20047;-69
2021/05/17 04:51:21;;;;;;;2.97;0.88;;;12.40;66.50;;;;;;4949615;29;20035;-66
2021/05/17 04:53:47;;;;;;;2.75;0.70;;;12.30;66.30;;;;;;4948633;29;20070;-66
2021/05/17 04:56:12;;;;;;;4.32;0.68;;;12.30;67.00;;;;;;4947816;29;20040;-65
2021/05/17 04:58:38;;;;;;;3.88;0.80;;;12.30;66.80;;;;;;4947985;29;20107;-65
2021/05/17 05:01:04;;;;;;;4.40;0.63;;;12.40;66.40;;;;;;4947634;29;20043;-66
2021/05/17 05:03:29;;;;;;;5.65;0.90;;;12.40;66.50;;;;;;4947460;29;20115;-68
2021/05/17 05:05:57;;;;;;;3.65;0.75;;;12.40;66.60;;;;;;4949157;29;20028;-65
2021/05/17 05:08:22;;;;;;;3.80;1.10;;;12.40;66.10;;;;;;4946962;29;20048;-66
2021/05/17 05:10:48;;;;;;;2.75;0.75;;;12.40;65.90;;;;;;4947603;29;20043;-69
2021/05/17 05:13:13;;;;;;;5.53;0.90;;;12.40;65.70;;;;;;4947442;29;20059;-69
2021/05/17 05:15:39;;;;;;;6.82;1.00;;;12.40;65.70;;;;;;4947786;29;20036;-67
2021/05/17 05:18:04;;;;;;;5.30;1.00;;;12.50;65.70;;;;;;4949417;29;20047;-65
2021/05/17 05:20:31;;;;;;;3.33;0.75;;;12.40;65.60;;;;;;4947832;29;20236;-65
2021/05/17 05:22:56;;;;;;;5.18;0.90;;;12.40;66.00;;;;;;4947317;29;20039;-66
2021/05/17 05:25:24;;;;;;;5.55;1.02;;;12.40;66.00;;;;;;4947231;29;20345;-64
2021/05/17 05:27:53;;;;;;;5.25;1.13;;;12.50;65.80;;;;;;4930257;29;20036;-65
2021/05/17 05:30:30;;;;;;;5.28;0.93;;;12.50;65.60;;;;;;4948950;29;20031;-66
2021/05/17 05:33:08;;;;;;;2.97;1.00;;;12.40;65.70;;;;;;4947549;29;20095;-66
2021/05/17 05:35:34;;;;;;;7.03;1.23;;;12.40;65.50;;;;;;4947555;29;20339;-65
2021/05/17 05:38:00;;;;;;;5.32;1.08;;;12.50;65.40;;;;;;4946734;29;20047;-65
2021/05/17 05:40:25;;;;;;;2.78;0.82;;;12.40;65.50;;;;;;4946800;29;20044;-64
2021/05/17 05:42:51;;;;;;;8.95;1.13;;;12.40;65.40;;;;;;4947087;29;20092;-65
2021/05/17 05:45:16;;;;;;;6.30;1.00;;;12.50;65.40;;;;;;4948425;29;20036;-64
2021/05/17 05:47:42;;;;;;;5.22;0.80;;;12.50;65.00;;;;;;4947190;29;20035;-64
2021/05/17 05:50:08;;;;;;;3.75;1.00;;;12.60;64.60;;;;;;4947095;29;20107;-64
2021/05/17 05:52:33;;;;;;;3.58;0.88;;;12.60;64.70;;;;;;4947400;29;20259;-63
2021/05/17 05:55:04;;;;;;;6.93;1.40;;;12.60;64.60;;;;;;4946671;29;20040;-63
2021/05/17 05:57:36;;;;;;;4.25;0.95;;;12.60;64.70;;;;;;4946808;29;20031;-63
2021/05/17 06:00:04;;;;;;;3.53;0.80;;;12.60;64.50;;;;;;4948484;29;20342;-63
2021/05/17 06:02:29;;;;;;;6.65;1.20;;;12.70;64.60;;;;;;4929892;29;20047;-63
2021/05/17 06:04:56;;;;;;;5.35;1.00;;;12.80;64.70;;;;;;4946449;29;20078;-63
2021/05/17 06:07:22;;;;;;;4.25;1.10;;;12.70;64.00;;;;;;4946512;29;20038;-64
2021/05/17 06:09:47;;;;;;;5.55;1.40;;;12.70;64.40;;;;;;4946739;29;20204;-63
2021/05/17 06:12:13;;;;;;;8.90;2.75;;;12.70;64.50;;;;;;4948242;29;20071;-64
2021/05/17 06:14:39;;;;;;;6.72;1.20;;;12.70;63.50;;;;;;4946475;29;20040;-64
2021/05/17 06:17:05;;;;;;;2.38;0.70;;;12.70;64.60;;;;;;4945889;29;20039;-64
2021/05/17 06:19:30;;;;;;;5.47;0.75;;;12.80;64.70;;;;;;4945632;29;20071;-64
2021/05/17 06:21:56;;;;;;;4.63;1.00;;;12.80;65.50;;;;;;4946220;29;20039;-63
2021/05/17 06:24:22;;;;;;;3.53;0.68;;;12.90;64.30;;;;;;4945903;29;20127;-65
2021/05/17 06:26:48;;;;;;;5.85;1.00;;;12.90;64.50;;;;;;4947844;29;20027;-64
2021/05/17 06:29:13;;;;;;;1.65;0.70;;;12.90;65.00;;;;;;4946203;29;20175;-65
2021/05/17 06:31:43;;;;;;;3.28;1.05;;;12.80;65.30;;;;;;4946073;29;20045;-66
2021/05/17 06:34:09;;;;;;;3.72;1.00;;;12.80;65.30;;;;;;4929767;29;20374;-65
2021/05/17 06:36:35;;;;;;;4.10;1.00;;;12.90;65.20;;;;;;4945892;29;20032;-66
2021/05/17 06:39:02;;;;;;;5.95;1.00;;;13.10;65.00;;;;;;4947969;29;20045;-65
2021/05/17 06:41:30;;;;;;;4.15;0.80;;;13.10;65.10;;;;;;4929214;29;20040;-64
2021/05/17 06:43:56;;;;;;;4.03;0.85;;;13.20;65.40;;;;;;4945983;29;20043;-64
2021/05/17 06:46:21;;;;;;;9.82;1.17;;;13.30;65.40;;;;;;4945738;29;20036;-63
2021/05/17 06:48:47;;;;;;;4.65;0.95;;;13.30;65.20;;;;;;4945457;29;20039;-63
2021/05/17 06:51:16;;;;;;;5.43;1.20;;;13.40;64.40;;;;;;4947441;29;20039;-64
2021/05/17 06:53:42;;;;;;;2.90;0.80;;;13.40;63.80;;;;;;4945850;29;20035;-64
2021/05/17 06:56:14;;;;;;;6.47;1.00;;;13.50;63.20;;;;;;4929053;29;20375;-66
2021/05/17 06:58:59;;;;;;;2.60;0.85;;;13.50;63.60;;;;;;4928652;29;20055;-66
2021/05/17 07:01:25;;;;;;;2.28;0.73;;;13.40;63.10;;;;;;4945656;29;20047;-65
2021/05/17 07:03:52;;;;;;;4.03;0.98;;;13.40;62.00;;;;;;4945180;29;20216;-65
2021/05/17 07:06:23;;;;;;;5.22;1.73;;;13.50;62.70;;;;;;4947584;29;20042;-67
2021/05/17 07:14:24;;;;;;;6.88;1.85;;;13.70;62.20;;;;;;4945596;29;20047;-67
2021/05/17 07:16:50;;;;;;;2.58;0.75;;;13.80;62.40;;;;;;4945231;29;20375;-64
2021/05/17 07:19:15;;;;;;;11.93;1.83;;;13.90;61.10;;;;;;4945021;29;20075;-66
2021/05/17 07:24:27;;;;;;;9.82;0.95;;;13.90;61.20;;;;;;4945545;29;20366;-66
2021/05/17 07:26:52;;;;;;;3.47;0.90;;;14.10;61.40;;;;;;4946988;29;20199;-66
2021/05/17 07:29:19;;;;;;;3.22;0.70;;;14.10;61.20;;;;;;4945081;29;20067;-65
2021/05/17 07:31:45;;;;;;;3.17;1.00;;;14.10;61.40;;;;;;4945130;29;20053;-65
2021/05/17 07:34:10;;;;;;;4.05;0.70;;;14.00;60.90;;;;;;4945360;29;20078;-66
2021/05/17 07:36:36;;;;;;;3.85;0.77;;;14.00;60.70;;;;;;4945174;29;20032;-66
2021/05/17 07:39:02;;;;;;;5.78;0.80;;;14.00;60.40;;;;;;4946890;29;20031;-65
2021/05/17 07:41:28;;;;;;;3.80;0.88;;;13.90;60.80;;;;;;4945530;29;20095;-66
2021/05/17 07:43:54;;;;;;;3.72;0.70;;;13.90;60.80;;;;;;4945179;29;20040;-66
2021/05/17 07:46:19;;;;;;;2.72;0.80;;;13.90;60.80;;;;;;4944813;29;20267;-66
2021/05/17 07:51:29;;;;;;;5.45;0.60;;;14.00;60.80;;;;;;4944890;29;20020;-66
2021/05/17 07:53:54;;;;;;;3.42;0.80;;;14.10;60.70;;;;;;4946843;29;20035;-66
2021/05/17 07:56:20;;;;;;;3.83;0.70;;;14.20;60.20;;;;;;4944606;29;20108;-67
2021/05/17 07:58:46;;;;;;;3.65;0.70;;;14.20;60.30;;;;;;4944957;29;20043;-65
2021/05/17 08:01:12;;;;;;;3.38;0.70;;;14.20;59.80;;;;;;4944689;29;20036;-68
2021/05/17 08:03:38;;;;;;;2.35;0.80;;;14.20;59.80;;;;;;4944454;29;20055;-66
2021/05/17 08:06:03;;;;;;;3.45;0.70;;;14.30;59.60;;;;;;4946616;29;20043;-67
2021/05/17 08:08:29;;;;;;;4.18;0.50;;;14.30;59.70;;;;;;4945255;29;20350;-67
2021/05/17 08:10:55;;;;;;;3.97;0.70;;;14.40;59.30;;;;;;4944647;29;20044;-68
2021/05/17 08:13:20;;;;;;;1.83;0.55;;;14.40;59.40;;;;;;4944638;29;20040;-67
2021/05/17 08:15:46;;;;;;;4.53;0.70;;;14.40;59.40;;;;;;4944500;29;20047;-67
2021/05/17 08:18:11;;;;;;;4.47;1.55;;;14.40;58.60;;;;;;4946725;29;20059;-68
2021/05/17 08:20:37;;;;;;;2.90;0.50;;;14.40;58.70;;;;;;4944994;29;20130;-67
2021/05/17 08:23:02;;;;;;;2.97;0.60;;;14.40;58.60;;;;;;4944577;29;20027;-64
2021/05/17 08:25:28;;;;;;;2.97;0.88;;;14.30;58.30;;;;;;4944502;29;20385;-66
2021/05/17 08:27:56;;;;;;;2.08;0.47;;;14.30;58.20;;;;;;4944452;29;20035;-67
2021/05/17 08:30:23;;;;;;;2.00;0.60;;;14.30;58.70;;;;;;4944730;29;20075;-68
2021/05/17 08:32:49;;;;;;;2.53;0.60;;;14.30;58.90;;;;;;4946185;29;20024;-68
2021/05/17 08:35:15;;;;;;;5.88;0.73;;;14.30;58.70;;;;;;4927698;29;20035;-68
2021/05/17 08:37:40;;;;;;;2.25;0.50;;;14.30;58.80;;;;;;4944545;29;20040;-67
2021/05/17 08:40:06;;;;;;;3.75;0.75;;;14.30;59.10;;;;;;4944385;29;20079;-67
2021/05/17 08:42:32;;;;;;;4.35;0.60;;;14.40;58.80;;;;;;4946930;29;20055;-67
2021/05/17 08:44:58;;;;;;;1.00;0.35;;;14.50;58.30;;;;;;4949853;29;20031;-68
2021/05/17 08:47:24;;;;;;;2.03;0.50;;;14.60;57.50;;;;;;4931211;29;20208;-68
2021/05/17 08:49:49;;;;;;;2.78;0.57;;;14.70;57.40;;;;;;4948048;29;20099;-67
2021/05/17 08:52:15;;;;;;;2.88;0.50;;;14.80;57.90;;;;;;4947825;29;20043;-67
2021/05/17 08:54:40;;;;;;;0.63;0.40;;;14.80;55.80;;;;;;4930861;29;20110;-68
2021/05/17 08:57:06;;;;;;;3.25;0.50;;;14.80;55.60;;;;;;4949361;29;20036;-68
2021/05/17 08:59:31;;;;;;;2.45;0.50;;;14.80;56.30;;;;;;4947799;29;20040;-67
2021/05/17 09:01:57;;;;;;;2.10;0.60;;;14.80;56.20;;;;;;4947462;29;20047;-67
2021/05/17 09:04:23;;;;;;;3.92;0.50;;;14.80;55.70;;;;;;4947393;29;20279;-67
2021/05/17 09:06:59;;;;;;;2.53;0.57;;;14.90;55.50;;;;;;4947585;29;20040;-67
2021/05/17 09:09:30;;;;;;;2.13;0.40;;;14.90;54.90;;;;;;4931873;29;20055;-67
2021/05/17 09:12:03;;;;;;;0.63;0.30;;;15.00;55.00;;;;;;4949153;29;20098;-67
2021/05/17 09:14:30;;;;;;;2.25;0.40;;;15.00;55.60;;;;;;4947879;29;20063;-67
2021/05/17 09:16:59;;;;;;;2.72;0.47;;;15.00;54.90;;;;;;4947122;29;20042;-67
2021/05/17 09:19:26;;;;;;;2.55;0.50;;;15.20;55.40;;;;;;4947264;29;20095;-67
2021/05/17 09:22:09;;;;;;;1.52;0.93;;;15.10;55.20;;;;;;4947287;29;20050;-67
2021/05/17 09:24:39;;;;;;;2.38;0.60;;;15.20;54.00;;;;;;4947003;29;20237;-67
2021/05/17 09:27:05;;;;;;;1.25;0.52;;;15.10;54.60;;;;;;4949294;29;20043;-67
2021/05/17 09:29:41;;;;;;;2.40;0.50;;;15.20;54.90;;;;;;4947442;29;20044;-66
2021/05/17 09:32:16;;;;;;;5.05;0.68;;;15.30;54.60;;;;;;4947341;29;20051;-67
2021/05/17 09:34:42;;;;;;;2.53;1.20;;;15.50;54.80;;;;;;4947561;29;20040;-69
2021/05/17 09:37:08;;;;;;;1.08;0.52;;;15.60;54.30;;;;;;4947135;29;20046;-67
2021/05/17 09:39:36;;;;;;;1.23;0.30;;;15.60;53.30;;;;;;4929961;29;20031;-68
2021/05/17 09:42:02;;;;;;;2.92;0.60;;;15.70;54.20;;;;;;4948482;29;20030;-68
2021/05/17 09:44:28;;;;;;;1.67;0.50;;;15.70;52.80;;;;;;4930732;29;20350;-67
2021/05/17 09:47:16;;;;;;;0.90;0.40;;;15.80;53.20;;;;;;4946746;29;20047;-67
2021/05/17 09:49:52;;;;;;;3.03;0.70;;;15.80;51.60;;;;;;4947038;29;20048;-68
2021/05/17 09:52:23;;;;;;;1.40;0.70;;;15.80;52.40;;;;;;4946522;29;20083;-66
2021/05/17 09:55:02;;;;;;;2.47;0.50;;;15.80;52.70;;;;;;4929924;29;20045;-66
2021/05/17 09:57:31;;;;;;;1.83;0.50;;;15.80;52.10;;;;;;4946455;29;20035;-66
2021/05/17 09:59:57;;;;;;;2.33;0.60;;;15.80;52.10;;;;;;4931355;29;20219;-67
2021/05/17 10:02:26;;;;;;;2.47;0.43;;;15.80;52.30;;;;;;4946550;29;20059;-66
2021/05/17 10:04:52;;;;;;;2.95;0.60;;;15.90;52.40;;;;;;4946437;29;20335;-67
2021/05/17 10:07:17;;;;;;;4.97;0.60;;;15.90;51.70;;;;;;4946203;29;20046;-67
2021/05/17 10:09:43;;;;;;;4.60;0.80;;;16.00;52.20;;;;;;4929468;29;20043;-66
2021/05/17 10:12:08;;;;;;;1.30;0.43;;;15.90;52.10;;;;;;4948092;29;20027;-67
2021/05/17 10:14:34;;;;;;;2.83;0.50;;;15.90;51.50;;;;;;4914043;29;20383;-67
2021/05/17 10:16:59;;;;;;;5.47;0.80;;;15.90;51.10;;;;;;4945926;29;20046;-67
2021/05/17 10:19:26;;;;;;;1.05;0.50;;;16.00;51.30;;;;;;4929268;29;20102;-67
2021/05/17 10:21:51;;;;;;;2.35;0.50;;;16.00;51.20;;;;;;4946481;29;20040;-66
2021/05/17 10:24:17;;;;;;;2.20;0.50;;;16.10;51.90;;;;;;4930967;29;20304;-66
2021/05/17 10:26:43;;;;;;;5.80;0.60;;;16.00;50.50;;;;;;4946038;29;20036;-67
2021/05/17 10:29:08;;;;;;;2.47;0.52;;;16.10;51.50;;;;;;4929740;29;20046;-64
2021/05/17 10:31:34;;;;;;;4.32;0.70;;;16.20;51.80;;;;;;4946136;29;20103;-67
2021/05/17 10:34:03;;;;;;;2.72;0.50;;;16.30;52.30;;;;;;4929253;29;20028;-64
2021/05/17 10:36:59;;;;;;;1.08;0.60;;;16.40;51.70;;;;;;4945607;29;20227;-68
2021/05/17 10:39:31;;;;;;;2.47;0.60;;;16.40;50.30;;;;;;4929341;29;20207;-66
2021/05/17 10:48:17;;;;;;;3.90;0.70;;;16.60;50.00;;;;;;4904290;29;20406;-67
2021/05/17 10:50:51;;;;;;;3.47;0.50;;;16.60;49.40;;;;;;4946149;29;20204;-67
2021/05/17 10:53:53;;;;;;;0.93;0.40;;;16.70;50.60;;;;;;4945406;29;20043;-67
2021/05/17 10:56:38;;;;;;;3.63;0.50;;;16.80;50.10;;;;;;4945466;29;20031;-68
2021/05/17 11:01:57;;;;;;;6.43;0.50;;;16.80;48.90;;;;;;4931517;29;20143;-66
2021/05/17 11:04:39;;;;;;;2.30;0.50;;;16.90;48.90;;;;;;4944983;29;20098;-67
2021/05/17 11:07:30;;;;;;;3.78;0.40;;;16.90;48.90;;;;;;4928483;29;20083;-66
2021/05/17 11:10:07;;;;;;;1.85;0.88;;;16.90;48.80;;;;;;4945471;29;20310;-66
2021/05/17 11:12:53;;;;;;;2.05;0.50;;;17.00;49.30;;;;;;4945435;29;20223;-66
2021/05/17 11:15:20;;;;;;;1.38;0.55;;;17.10;49.40;;;;;;4946224;29;20043;-66
2021/05/17 11:17:52;;;;;;;2.30;0.60;;;17.00;49.90;;;;;;4945430;29;20059;-66
2021/05/17 11:20:47;;;;;;;1.42;0.40;;;17.00;48.00;;;;;;4945575;29;20462;-67
2021/05/17 11:23:25;;;;;;;2.83;0.50;;;17.10;48.80;;;;;;4945635;29;20345;-66
2021/05/17 11:26:12;;;;;;;2.42;0.45;;;17.10;49.30;;;;;;4928639;29;20255;-66
2021/05/17 11:28:41;;;;;;;3.80;0.63;;;17.00;48.10;;;;;;4945189;29;20223;-66
2021/05/17 11:31:19;;;;;;;1.52;0.40;;;16.90;47.30;;;;;;4944970;29;20040;-66
2021/05/17 11:34:03;;;;;;;1.38;0.45;;;16.90;47.40;;;;;;4945058;29;20031;-66
2021/05/17 11:36:35;;;;;;;1.63;0.40;;;16.90;47.00;;;;;;4929209;29;20028;-67
2021/05/17 11:39:18;;;;;;;4.72;0.45;;;16.80;47.20;;;;;;4946732;29;20048;-67
2021/05/17 11:41:47;;;;;;;1.65;0.50;;;16.80;47.50;;;;;;4945025;29;20056;-66
2021/05/17 11:44:13;;;;;;;0.95;0.40;;;16.80;47.10;;;;;;4944619;29;20137;-66
2021/05/17 11:46:41;;;;;;;3.05;0.47;;;16.90;47.20;;;;;;4944783;29;20087;-67
2021/05/17 11:49:11;;;;;;;5.35;0.47;;;16.80;47.00;;;;;;4944763;29;20036;-66
2021/05/17 11:51:36;;;;;;;0.68;0.35;;;16.90;47.20;;;;;;4944763;29;20421;-66
2021/05/17 11:54:02;;;;;;;1.50;0.40;;;16.80;46.30;;;;;;4929517;29;20091;-65
2021/05/17 11:56:39;;;;;;;2.50;0.47;;;16.90;47.10;;;;;;4927919;29;20035;-66
2021/05/17 11:59:09;;;;;;;6.03;0.52;;;16.80;46.30;;;;;;4945131;29;20273;-66
2021/05/17 12:01:35;;;;;;;3.92;0.40;;;16.90;46.90;;;;;;4944489;29;20099;-66
2021/05/17 12:04:11;;;;;;;2.20;0.38;;;16.80;47.10;;;;;;4944657;29;20056;-65
2021/05/17 12:06:38;;;;;;;2.45;0.30;;;16.80;46.10;;;;;;4944995;29;20028;-66
2021/05/17 12:09:04;;;;;;;2.08;0.40;;;16.90;46.50;;;;;;4946228;29;20058;-65
2021/05/17 12:11:29;;;;;;;1.65;0.40;;;16.80;46.90;;;;;;4928104;29;20055;-66
2021/05/17 12:14:04;;;;;;;2.70;0.43;;;16.90;46.60;;;;;;4944891;29;20043;-66
2021/05/17 12:16:29;;;;;;;2.90;0.60;;;16.90;47.70;;;;;;4930306;29;20040;-66
2021/05/17 12:19:02;;;;;;;4.70;0.50;;;17.10;46.90;;;;;;4948435;29;20027;-66
2021/05/17 12:21:37;;;;;;;1.67;0.43;;;17.10;46.80;;;;;;4948429;29;20066;-65
2021/05/17 12:24:06;;;;;;;4.82;0.60;;;17.20;47.60;;;;;;4950066;29;20211;-65
2021/05/17 12:26:52;;;;;;;1.02;0.30;;;17.30;48.00;;;;;;4948709;29;20215;-66
2021/05/17 12:29:18;;;;;;;1.10;0.50;;;17.30;46.30;;;;;;4948461;29;20036;-66
2021/05/17 12:31:44;;;;;;;1.30;0.40;;;17.30;46.20;;;;;;4948284;29;20066;-65
2021/05/17 12:34:10;;;;;;;2.15;0.40;;;17.40;46.70;;;;;;4948313;29;20036;-65
2021/05/17 12:36:36;;;;;;;1.98;0.50;;;17.40;46.20;;;;;;4947962;29;20067;-67
2021/05/17 12:39:02;;;;;;;0.95;0.40;;;17.50;46.20;;;;;;4933381;29;20079;-67
2021/05/17 12:41:35;;;;;;;1.17;0.40;;;17.50;46.40;;;;;;4948372;29;20044;-66
2021/05/17 12:44:02;;;;;;;1.30;0.40;;;17.50;45.00;;;;;;4948235;29;20104;-66
2021/05/17 12:46:28;;;;;;;2.15;0.40;;;17.60;45.20;;;;;;4947726;29;20062;-67
2021/05/17 12:48:54;;;;;;;0.73;0.50;;;17.70;45.80;;;;;;4948175;29;20035;-65
2021/05/17 12:51:33;;;;;;;1.23;0.40;;;17.70;45.50;;;;;;4949502;29;20035;-65
2021/05/17 12:54:25;;;;;;;1.80;0.50;;;17.60;45.40;;;;;;4932376;29;20036;-65
2021/05/17 12:56:50;;;;;;;3.67;0.47;;;17.80;44.90;;;;;;4944427;29;20177;-65
2021/05/17 12:59:18;;;;;;;2.15;0.50;;;17.60;44.50;;;;;;4931119;29;20031;-69
2021/05/17 13:01:45;;;;;;;3.55;0.55;;;17.60;44.70;;;;;;4948003;29;20036;-66
2021/05/17 13:04:10;;;;;;;3.30;0.60;;;17.50;44.80;;;;;;4947645;29;20218;-65
2021/05/17 13:06:36;;;;;;;2.90;0.70;;;17.50;44.90;;;;;;4931064;29;20054;-64
2021/05/17 13:09:20;;;;;;;0.80;0.40;;;17.40;44.40;;;;;;4949333;29;20315;-64
2021/05/17 13:11:45;;;;;;;0.68;0.30;;;17.40;43.60;;;;;;4947936;29;20040;-63
2021/05/17 13:14:14;;;;;;;3.63;0.50;;;17.40;45.40;;;;;;4930729;29;20260;-63
2021/05/17 13:16:40;;;;;;;1.45;0.50;;;17.50;45.50;;;;;;4947601;29;20043;-63
2021/05/17 13:19:30;;;;;;;2.45;0.65;;;17.50;45.90;;;;;;4947664;29;20040;-63
2021/05/17 13:22:11;;;;;;;0.63;0.40;;;17.60;45.60;;;;;;4947680;29;20032;-63